createdAt,value
2023-04-15T00:00:00.425Z,101035.75
2023-04-15T00:02:29.935Z,101036.09
2023-04-15T00:04:56.553Z,101041.03
2023-04-15T00:07:23.000Z,101038.19
2023-04-15T00:09:49.636Z,101043.78
2023-04-15T00:12:18.207Z,101035.75
2023-04-15T00:14:44.982Z,101037.06
2023-04-15T00:17:14.052Z,101042.00
2023-04-15T00:19:40.896Z,101037.22
2023-04-15T00:22:08.042Z,101044.72
2023-04-15T00:24:34.545Z,101040.88
2023-04-15T00:27:01.026Z,101041.84
2023-04-15T00:29:27.591Z,101035.72
2023-04-15T00:31:54.572Z,101039.56
2023-04-15T00:34:21.311Z,101039.09
2023-04-15T00:36:50.326Z,101037.00
2023-04-15T00:39:16.946Z,101037.63
2023-04-15T00:41:48.857Z,101036.97
2023-04-15T00:44:15.565Z,101037.78
2023-04-15T00:46:45.627Z,101037.13
2023-04-15T00:49:17.540Z,101052.78
2023-04-15T00:51:44.810Z,101040.44
2023-04-15T00:54:14.392Z,101044.94
2023-04-15T00:56:42.953Z,101040.13
2023-04-15T00:59:09.816Z,101043.63
2023-04-15T01:01:37.188Z,101049.53
2023-04-15T01:04:05.125Z,101046.97
2023-04-15T01:06:32.764Z,101046.19
2023-04-15T01:09:02.379Z,101045.22
2023-04-15T01:11:29.566Z,101051.44
2023-04-15T01:13:58.512Z,101050.63
2023-04-15T01:16:28.747Z,101052.06
2023-04-15T01:18:56.190Z,101049.50
2023-04-15T01:21:25.483Z,101048.84
2023-04-15T01:23:55.319Z,101045.78
2023-04-15T01:26:22.495Z,101046.91
2023-04-15T01:28:49.328Z,101047.22
2023-04-15T01:31:15.809Z,101049.41
2023-04-15T01:33:43.494Z,101045.44
2023-04-15T01:36:10.847Z,101046.22
2023-04-15T01:38:38.469Z,101050.69
2023-04-15T01:41:10.377Z,101045.72
2023-04-15T01:43:37.391Z,101048.72
2023-04-15T01:46:04.128Z,101050.63
2023-04-15T01:48:33.490Z,101051.44
2023-04-15T01:51:03.341Z,101052.41
2023-04-15T01:53:30.046Z,101043.94
2023-04-15T01:55:59.031Z,101043.13
2023-04-15T01:58:25.609Z,101047.56
2023-04-15T02:00:55.117Z,101051.59
2023-04-15T02:03:21.830Z,101053.50
2023-04-15T02:05:48.355Z,101049.81
2023-04-15T02:08:14.846Z,101053.09
2023-04-15T02:10:41.393Z,101055.31
2023-04-15T02:13:10.884Z,101063.56
2023-04-15T02:15:37.447Z,101055.56
2023-04-15T02:18:06.821Z,101058.41
2023-04-15T02:20:36.807Z,101062.84
2023-04-15T02:23:07.282Z,101060.97
2023-04-15T02:25:33.797Z,101060.81
2023-04-15T02:28:02.986Z,101057.16
2023-04-15T02:30:34.129Z,101062.13
2023-04-15T02:33:01.422Z,101066.56
2023-04-15T02:35:32.674Z,101065.75
2023-04-15T02:38:03.930Z,101064.97
2023-04-15T02:40:30.447Z,101072.09
2023-04-15T02:42:56.889Z,101076.56
2023-04-15T02:45:27.599Z,101075.13
2023-04-15T02:47:54.909Z,101079.56
2023-04-15T02:50:25.259Z,101075.41
2023-04-15T02:52:54.190Z,101080.38
2023-04-15T02:55:23.487Z,101091.81
2023-04-15T02:57:52.378Z,101086.69
2023-04-15T03:00:21.620Z,101092.75
2023-04-15T03:02:52.429Z,101090.53
2023-04-15T03:05:21.372Z,101095.63
2023-04-15T03:07:47.855Z,101096.59
2023-04-15T03:10:14.429Z,101100.22
2023-04-15T03:12:43.755Z,101107.06
2023-04-15T03:15:10.444Z,101110.72
2023-04-15T03:17:37.064Z,101108.97
2023-04-15T03:20:05.591Z,101113.41
2023-04-15T03:22:34.696Z,101106.88
2023-04-15T03:25:01.721Z,101105.03
2023-04-15T03:27:28.190Z,101115.53
2023-04-15T03:29:54.608Z,101110.72
2023-04-15T03:32:23.482Z,101104.16
2023-04-15T03:34:50.275Z,101116.53
2023-04-15T03:37:19.245Z,101109.84
2023-04-15T03:39:46.210Z,101116.69
2023-04-15T03:42:12.619Z,101118.84
2023-04-15T03:44:39.106Z,101114.66
2023-04-15T03:47:05.616Z,101121.03
2023-04-15T03:49:32.148Z,101127.88
2023-04-15T03:51:59.688Z,101130.53
2023-04-15T03:54:26.536Z,101125.75
2023-04-15T03:56:53.101Z,101126.19
2023-04-15T03:59:19.896Z,101134.78
2023-04-15T04:01:46.870Z,101133.81
2023-04-15T04:04:13.644Z,101139.88
2023-04-15T04:06:44.807Z,101139.88
2023-04-15T04:09:13.761Z,101142.53
2023-04-15T04:11:41.300Z,101148.91
2023-04-15T04:14:07.778Z,101150.66
2023-04-15T04:16:42.120Z,101156.53
2023-04-15T04:19:10.856Z,101159.50
2023-04-15T04:21:39.705Z,101159.94
2023-04-15T04:24:08.431Z,101159.28
2023-04-15T04:26:37.126Z,101158.59
2023-04-15T04:29:04.119Z,101161.31
2023-04-15T04:31:31.121Z,101166.41
2023-04-15T04:33:59.671Z,101170.00
2023-04-15T04:36:26.600Z,101176.22
2023-04-15T04:38:58.342Z,101183.22
2023-04-15T04:41:24.909Z,101190.97
2023-04-15T04:43:51.348Z,101192.06
2023-04-15T04:46:17.950Z,101193.00
2023-04-15T04:48:46.627Z,101196.38
2023-04-15T04:51:16.091Z,101204.81
2023-04-15T04:53:43.651Z,101204.66
2023-04-15T04:56:13.056Z,101211.66
2023-04-15T04:58:39.572Z,101210.44
2023-04-15T05:01:08.999Z,101218.22
2023-04-15T05:03:35.697Z,101219.00
2023-04-15T05:06:07.359Z,101225.84
2023-04-15T05:08:37.328Z,101224.25
2023-04-15T05:11:05.257Z,101226.00
2023-04-15T05:13:31.790Z,101231.25
2023-04-15T05:16:00.706Z,101245.06
2023-04-15T05:18:27.367Z,101246.13
2023-04-15T05:20:56.360Z,101249.63
2023-04-15T05:23:22.892Z,101254.03
2023-04-15T05:25:52.106Z,101262.38
2023-04-15T05:28:18.599Z,101265.44
2023-04-15T05:30:50.529Z,101265.31
2023-04-15T05:33:21.583Z,101270.94
2023-04-15T05:35:48.054Z,101274.66
2023-04-15T05:38:14.883Z,101279.91
2023-04-15T05:40:41.396Z,101285.50
2023-04-15T05:43:10.959Z,101296.59
2023-04-15T05:45:39.840Z,101290.44
2023-04-15T05:48:08.952Z,101289.34
2023-04-15T05:50:35.867Z,101299.63
2023-04-15T05:53:04.881Z,101296.41
2023-04-15T05:55:34.874Z,101299.69
2023-04-15T05:58:01.354Z,101302.94
2023-04-15T06:00:27.778Z,101303.06
2023-04-15T06:02:56.966Z,101301.84
2023-04-15T06:05:25.848Z,101307.69
2023-04-15T06:07:52.862Z,101314.53
2023-04-15T06:10:19.312Z,101317.50
2023-04-15T06:12:48.065Z,101323.41
2023-04-15T06:15:17.513Z,101321.53
2023-04-15T06:17:46.301Z,101330.22
2023-04-15T06:20:15.114Z,101332.97
2023-04-15T06:22:41.696Z,101334.69
2023-04-15T06:25:09.285Z,101342.78
2023-04-15T06:27:38.100Z,101342.94
2023-04-15T06:30:05.487Z,101350.31
2023-04-15T06:32:37.873Z,101348.59
2023-04-15T06:35:07.556Z,101353.25
2023-04-15T06:37:36.424Z,101355.72
2023-04-15T06:40:05.026Z,101365.09
2023-04-15T06:42:37.194Z,101368.41
2023-04-15T06:45:04.395Z,101371.47
2023-04-15T06:47:31.219Z,101371.91
2023-04-15T06:49:57.683Z,101383.53
2023-04-15T06:52:26.444Z,101391.66
2023-04-15T06:54:55.286Z,101388.50
2023-04-15T06:57:21.738Z,101390.69
2023-04-15T06:59:54.660Z,101403.69
2023-04-15T07:02:23.832Z,101409.13
2023-04-15T07:04:50.383Z,101409.22
2023-04-15T07:07:17.589Z,101406.63
2023-04-15T07:09:45.180Z,101413.03
2023-04-15T07:12:11.734Z,101421.00
2023-04-15T07:14:38.296Z,101418.38
2023-04-15T07:17:07.845Z,101418.25
2023-04-15T07:19:36.696Z,101430.81
2023-04-15T07:22:03.895Z,101425.03
2023-04-15T07:24:32.467Z,101430.88
2023-04-15T07:27:01.777Z,101432.28
2023-04-15T07:29:33.211Z,101433.16
2023-04-15T07:32:02.135Z,101448.28
2023-04-15T07:34:30.137Z,101442.84
2023-04-15T07:36:59.336Z,101446.56
2023-04-15T07:39:25.904Z,101451.34
2023-04-15T07:41:54.927Z,101450.56
2023-04-15T07:44:21.458Z,101451.53
2023-04-15T07:46:50.554Z,101459.06
2023-04-15T07:49:19.273Z,101457.38
2023-04-15T07:51:45.989Z,101458.53
2023-04-15T07:54:12.656Z,101464.69
2023-04-15T07:56:43.742Z,101466.94
2023-04-15T07:59:12.968Z,101470.16
2023-04-15T08:01:42.549Z,101468.75
2023-04-15T08:04:09.250Z,101478.66
2023-04-15T08:06:39.732Z,101469.50
2023-04-15T08:09:08.951Z,101478.94
2023-04-15T08:11:37.735Z,101487.16
2023-04-15T08:14:06.947Z,101479.72
2023-04-15T08:16:36.245Z,101484.03
2023-04-15T08:19:03.981Z,101487.88
2023-04-15T08:21:33.808Z,101479.75
2023-04-15T08:24:00.450Z,101491.94
2023-04-15T08:26:29.218Z,101490.94
2023-04-15T08:28:58.060Z,101488.84
2023-04-15T08:31:27.843Z,101504.97
2023-04-15T08:33:57.615Z,101500.53
2023-04-15T08:36:24.075Z,101501.31
2023-04-15T08:38:50.604Z,101508.53
2023-04-15T08:41:24.551Z,101511.91
2023-04-15T08:43:56.869Z,101517.78
2023-04-15T08:46:28.977Z,101515.00
2023-04-15T08:48:58.976Z,101523.63
2023-04-15T08:51:29.064Z,101528.81
2023-04-15T08:53:55.754Z,101535.53
2023-04-15T08:56:26.977Z,101539.63
2023-04-15T08:58:53.658Z,101538.53
2023-04-15T09:01:20.506Z,101542.09
2023-04-15T09:03:50.482Z,101545.28
2023-04-15T09:06:21.977Z,101550.53
2023-04-15T09:08:51.792Z,101555.09
2023-04-15T09:11:20.214Z,101557.19
2023-04-15T09:13:49.378Z,101565.38
2023-04-15T09:16:18.843Z,101570.31
2023-04-15T09:18:45.670Z,101570.22
2023-04-15T09:21:14.542Z,101574.91
2023-04-15T09:24:01.976Z,101579.41
2023-04-15T09:26:36.305Z,101575.34
2023-04-15T09:29:14.806Z,101573.72
2023-04-15T09:31:41.820Z,101576.38
2023-04-15T09:34:12.909Z,101591.03
2023-04-15T09:37:00.162Z,101582.53
2023-04-15T09:39:27.022Z,101587.78
2023-04-15T09:42:07.251Z,101589.13
2023-04-15T09:44:36.606Z,101592.78
2023-04-15T09:47:03.147Z,101591.81
2023-04-15T09:49:29.860Z,101588.69
2023-04-15T09:52:06.195Z,101586.19
2023-04-15T09:54:39.623Z,101598.75
2023-04-15T09:57:15.766Z,101593.56
2023-04-15T09:59:42.502Z,101601.97
2023-04-15T10:02:09.314Z,101596.66
2023-04-15T10:04:38.456Z,101606.06
2023-04-15T10:07:08.087Z,101603.47
2023-04-15T10:09:38.597Z,101613.38
2023-04-15T10:12:07.843Z,101614.75
2023-04-15T10:14:44.375Z,101618.59
2023-04-15T10:17:20.770Z,101621.69
2023-04-15T10:19:48.215Z,101623.81
2023-04-15T10:22:14.983Z,101623.97
2023-04-15T10:24:42.645Z,101621.97
2023-04-15T10:27:09.693Z,101631.09
2023-04-15T10:29:38.969Z,101629.69
2023-04-15T10:32:08.105Z,101636.47
2023-04-15T10:34:37.639Z,101627.84
2023-04-15T10:37:04.736Z,101627.41
2023-04-15T10:39:34.358Z,101628.13
2023-04-15T10:42:08.007Z,101634.28
2023-04-15T10:44:37.792Z,101639.50
2023-04-15T10:47:14.720Z,101642.00
2023-04-15T10:49:51.528Z,101641.19
2023-04-15T10:52:25.852Z,101640.38
2023-04-15T10:55:06.650Z,101649.13
2023-04-15T10:57:41.320Z,101653.94
2023-04-15T11:00:13.555Z,101650.81
2023-04-15T11:02:52.311Z,101658.53
2023-04-15T11:05:20.621Z,101655.88
2023-04-15T11:07:48.421Z,101667.66
2023-04-15T11:10:17.590Z,101663.78
2023-04-15T11:12:51.160Z,101659.44
2023-04-15T11:15:40.932Z,101666.00
2023-04-15T11:18:16.374Z,101665.66
2023-04-15T11:20:45.721Z,101664.09
2023-04-15T11:23:15.101Z,101669.28
2023-04-15T11:25:45.119Z,101666.56
2023-04-15T11:28:12.987Z,101668.53
2023-04-15T11:30:45.069Z,101666.50
2023-04-15T11:33:16.309Z,101662.88
2023-04-15T11:35:43.010Z,101660.84
2023-04-15T11:38:17.868Z,101678.81
2023-04-15T11:40:47.339Z,101666.63
2023-04-15T11:43:18.658Z,101679.22
2023-04-15T11:45:54.538Z,101669.94
2023-04-15T11:48:26.663Z,101683.13
2023-04-15T11:51:01.680Z,101678.91
2023-04-15T11:53:42.145Z,101683.91
2023-04-15T11:56:11.192Z,101676.25
2023-04-15T11:58:42.428Z,101685.69
2023-04-15T12:01:08.946Z,101693.19
2023-04-15T12:03:43.715Z,101699.16
2023-04-15T12:06:19.913Z,101699.28
2023-04-15T12:08:49.329Z,101703.06
2023-04-15T12:11:21.458Z,101708.75
2023-04-15T12:13:51.340Z,101700.69
2023-04-15T12:16:20.946Z,101714.06
2023-04-15T12:18:51.862Z,101720.91
2023-04-15T12:21:22.372Z,101720.78
2023-04-15T12:23:52.905Z,101717.38
2023-04-15T12:26:26.509Z,101719.97
2023-04-15T12:29:00.497Z,101725.16
2023-04-15T12:31:27.027Z,101731.50
2023-04-15T12:34:00.676Z,101731.19
2023-04-15T12:36:37.063Z,101731.53
2023-04-15T12:39:06.387Z,101735.47
2023-04-15T12:41:33.656Z,101737.66
2023-04-15T12:44:02.699Z,101745.75
2023-04-15T12:46:29.523Z,101740.88
2023-04-15T12:48:57.050Z,101735.75
2023-04-15T12:51:28.493Z,101750.34
2023-04-15T12:53:54.959Z,101735.16
2023-04-15T12:56:21.426Z,101753.03
2023-04-15T12:58:55.254Z,101755.16
2023-04-15T13:01:24.063Z,101765.75
2023-04-15T13:03:53.122Z,101758.72
2023-04-15T13:06:19.651Z,101760.72
2023-04-15T13:08:57.904Z,101769.66
2023-04-15T13:11:25.987Z,101768.25
2023-04-15T13:13:55.069Z,101776.38
2023-04-15T13:16:21.935Z,101775.50
2023-04-15T13:18:48.972Z,101780.69
2023-04-15T13:21:18.397Z,101794.06
2023-04-15T13:23:51.462Z,101790.53
2023-04-15T13:26:18.751Z,101791.63
2023-04-15T13:28:46.172Z,101786.28
2023-04-15T13:31:15.025Z,101791.47
2023-04-15T13:33:41.618Z,101806.13
2023-04-15T13:36:10.833Z,101806.72
2023-04-15T13:38:37.373Z,101805.84
2023-04-15T13:41:03.894Z,101809.22
2023-04-15T13:43:34.232Z,101809.94
2023-04-15T13:46:01.327Z,101823.75
2023-04-15T13:48:31.055Z,101825.13
2023-04-15T13:50:57.482Z,101834.63
2023-04-15T13:53:28.161Z,101830.59
2023-04-15T13:56:05.792Z,101833.03
2023-04-15T13:58:39.707Z,101841.09
2023-04-15T14:01:08.555Z,101831.75
2023-04-15T14:03:38.001Z,101834.03
2023-04-15T14:06:05.902Z,101843.22
2023-04-15T14:08:35.263Z,101851.91
2023-04-15T14:11:01.768Z,101849.81
2023-04-15T14:13:28.397Z,101854.50
2023-04-15T14:15:57.189Z,101858.69
2023-04-15T14:18:23.746Z,101864.81
2023-04-15T14:20:50.298Z,101868.47
2023-04-15T14:23:16.769Z,101871.72
2023-04-15T14:25:44.158Z,101871.25
2023-04-15T14:28:11.983Z,101880.25
2023-04-15T14:30:43.272Z,101882.78
2023-04-15T14:33:12.496Z,101880.69
2023-04-15T14:35:43.893Z,101895.16
2023-04-15T14:38:12.916Z,101890.81
2023-04-15T14:40:40.806Z,101893.88
2023-04-15T14:43:09.829Z,101892.41
2023-04-15T14:45:41.878Z,101898.78
2023-04-15T14:48:10.379Z,101908.91
2023-04-15T14:50:36.902Z,101900.84
2023-04-15T14:53:05.978Z,101903.91
2023-04-15T14:55:32.472Z,101918.06
2023-04-15T14:57:58.942Z,101916.44
2023-04-15T15:00:25.754Z,101919.03
2023-04-15T15:02:54.558Z,101921.28
2023-04-15T15:05:21.334Z,101928.69
2023-04-15T15:07:47.917Z,101936.53
2023-04-15T15:10:14.382Z,101928.13
2023-04-15T15:12:40.917Z,101936.50
2023-04-15T15:15:19.498Z,101942.09
2023-04-15T15:17:54.455Z,101938.41
2023-04-15T15:20:21.508Z,101947.56
2023-04-15T15:22:47.986Z,101949.78
2023-04-15T15:25:21.848Z,101950.16
2023-04-15T15:27:51.735Z,101947.19
2023-04-15T15:30:18.190Z,101955.00
2023-04-15T15:32:46.980Z,101956.94
2023-04-15T15:35:16.369Z,101964.63
2023-04-15T15:37:43.393Z,101969.31
2023-04-15T15:40:10.395Z,101968.19
2023-04-15T15:42:39.342Z,101962.75
2023-04-15T15:45:06.463Z,101963.84
2023-04-15T15:47:33.057Z,101969.44
2023-04-15T15:50:03.037Z,101975.56
2023-04-15T15:52:33.013Z,101973.75
2023-04-15T15:57:33.243Z,101982.69
2023-04-15T16:00:10.545Z,101981.38
2023-04-15T16:05:11.160Z,101994.16
2023-04-15T16:07:39.895Z,102002.13
2023-04-15T16:10:09.223Z,101989.66
2023-04-15T16:12:36.131Z,101993.25
2023-04-15T16:15:05.193Z,102009.09
2023-04-15T16:17:34.988Z,101998.09
2023-04-15T16:20:05.561Z,102005.78
2023-04-15T16:22:36.477Z,102006.38
2023-04-15T16:25:06.379Z,102009.84
2023-04-15T16:27:33.820Z,102018.59
2023-04-15T16:30:01.958Z,102021.75
2023-04-15T16:32:30.788Z,102031.25
2023-04-15T16:35:02.375Z,102034.13
2023-04-15T16:37:28.855Z,102023.72
2023-04-15T16:39:58.078Z,102028.84
2023-04-15T16:42:24.739Z,102040.44
2023-04-15T16:44:51.309Z,102035.81
2023-04-15T16:47:20.161Z,102046.34
2023-04-15T16:49:47.636Z,102043.88
2023-04-15T16:52:14.328Z,102052.00
2023-04-15T16:54:43.354Z,102048.13
2023-04-15T16:57:09.911Z,102049.22
2023-04-15T16:59:37.958Z,102054.25
2023-04-15T17:02:04.561Z,102057.09
2023-04-15T17:04:34.975Z,102052.16
2023-04-15T17:07:01.564Z,102055.03
2023-04-15T17:09:28.177Z,102055.69
2023-04-15T17:11:57.567Z,102069.31
2023-04-15T17:14:24.505Z,102067.84
2023-04-15T17:16:53.344Z,102075.53
2023-04-15T17:19:20.052Z,102068.81
2023-04-15T17:21:46.533Z,102084.47
2023-04-15T17:24:13.136Z,102087.19
2023-04-15T17:26:42.177Z,102087.84
2023-04-15T17:29:08.667Z,102080.97
2023-04-15T17:31:35.386Z,102087.34
2023-04-15T17:34:09.990Z,102094.63
2023-04-15T17:36:37.410Z,102093.03
2023-04-15T17:39:06.772Z,102091.94
2023-04-15T17:41:38.030Z,102099.22
2023-04-15T17:44:04.715Z,102098.56
2023-04-15T17:46:33.697Z,102103.03
2023-04-15T17:49:00.189Z,102105.44
2023-04-15T17:51:26.831Z,102112.34
2023-04-15T17:53:53.315Z,102109.22
2023-04-15T17:56:22.332Z,102113.53
2023-04-15T17:58:52.040Z,102113.81
2023-04-15T18:01:23.405Z,102119.88
2023-04-15T18:03:50.239Z,102130.13
2023-04-15T18:06:17.055Z,102142.94
2023-04-15T18:08:43.590Z,102131.88
2023-04-15T18:11:12.762Z,102129.47
2023-04-15T18:13:43.533Z,102137.00
2023-04-15T18:16:12.995Z,102141.97
2023-04-15T18:18:39.596Z,102144.53
2023-04-15T18:21:06.266Z,102141.47
2023-04-15T18:23:32.767Z,102144.25
2023-04-15T18:26:01.798Z,102141.81
2023-04-15T18:28:31.076Z,102147.34
2023-04-15T18:30:57.589Z,102154.38
2023-04-15T18:33:24.034Z,102150.06
2023-04-15T18:35:52.843Z,102159.50
2023-04-15T18:38:19.294Z,102158.69
2023-04-15T18:40:46.011Z,102158.78
2023-04-15T18:43:14.941Z,102161.50
2023-04-15T18:45:41.478Z,102160.44
2023-04-15T18:48:08.116Z,102166.34
2023-04-15T18:50:34.705Z,102173.34
2023-04-15T18:53:03.437Z,102166.88
2023-04-15T18:55:32.314Z,102177.38
2023-04-15T18:58:06.556Z,102176.72
2023-04-15T19:00:39.052Z,102174.25
2023-04-15T19:03:08.547Z,102177.78
2023-04-15T19:05:40.015Z,102181.13
2023-04-15T19:08:10.042Z,102184.78
2023-04-15T19:10:36.750Z,102189.75
2023-04-15T19:13:04.353Z,102198.41
2023-04-15T19:15:35.953Z,102198.41
2023-04-15T19:18:10.378Z,102211.34
2023-04-15T19:20:40.291Z,102194.47
2023-04-15T19:23:07.300Z,102203.09
2023-04-15T19:25:33.950Z,102192.06
2023-04-15T19:28:00.448Z,102200.53
2023-04-15T19:30:29.298Z,102206.75
2023-04-15T19:32:58.330Z,102208.47
2023-04-15T19:35:27.315Z,102209.41
2023-04-15T19:37:56.352Z,102211.97
2023-04-15T19:40:25.540Z,102213.47
2023-04-15T19:42:52.020Z,102213.59
2023-04-15T19:45:18.551Z,102210.22
2023-04-15T19:47:45.194Z,102205.00
2023-04-15T19:50:15.684Z,102217.66
2023-04-15T19:52:42.270Z,102214.28
2023-04-15T19:55:11.322Z,102215.09
2023-04-15T19:57:42.656Z,102225.19
2023-04-15T20:00:09.821Z,102224.38
2023-04-15T20:02:36.482Z,102227.66
2023-04-15T20:05:09.715Z,102240.44
2023-04-15T20:07:36.381Z,102233.44
2023-04-15T20:10:08.609Z,102232.63
2023-04-15T20:12:50.981Z,102224.00
2023-04-15T20:15:20.061Z,102229.78
2023-04-15T20:17:51.375Z,102223.84
2023-04-15T20:20:23.057Z,102229.78
2023-04-15T20:22:49.702Z,102228.16
2023-04-15T20:25:16.294Z,102229.94
2023-04-15T20:27:45.129Z,102224.00
2023-04-15T20:30:11.812Z,102232.47
2023-04-15T20:32:38.725Z,102235.84
2023-04-15T20:35:06.832Z,102228.44
2023-04-15T20:37:37.383Z,102232.75
2023-04-15T20:40:04.192Z,102241.34
2023-04-15T20:42:36.879Z,102242.16
2023-04-15T20:45:03.903Z,102233.69
2023-04-15T20:47:30.925Z,102238.13
2023-04-15T20:49:57.490Z,102232.19
2023-04-15T20:52:26.212Z,102228.94
2023-04-15T20:54:52.707Z,102241.06
2023-04-15T20:57:20.186Z,102242.16
2023-04-15T20:59:46.695Z,102244.28
2023-04-15T21:02:16.096Z,102242.78
2023-04-15T21:04:42.604Z,102249.66
2023-04-15T21:07:12.053Z,102245.47
2023-04-15T21:09:43.775Z,102241.31
2023-04-15T21:12:13.169Z,102250.59
2023-04-15T21:14:42.147Z,102259.09
2023-04-15T21:17:11.149Z,102257.59
2023-04-15T21:19:40.673Z,102255.97
2023-04-15T21:22:07.224Z,102255.97
2023-04-15T21:24:38.450Z,102255.03
2023-04-15T21:27:05.117Z,102256.09
2023-04-15T21:29:33.761Z,102261.22
2023-04-15T21:32:02.511Z,102259.47
2023-04-15T21:34:29.044Z,102250.16
2023-04-15T21:36:55.701Z,102252.72
2023-04-15T21:39:22.149Z,102254.63
2023-04-15T21:41:48.721Z,102253.81
2023-04-15T21:44:15.417Z,102256.38
2023-04-15T21:46:45.660Z,102258.22
2023-04-15T21:49:12.620Z,102265.09
2023-04-15T21:51:41.926Z,102270.34
2023-04-15T21:54:10.890Z,102271.81
2023-04-15T21:56:37.989Z,102276.00
2023-04-15T21:59:04.803Z,102270.78
2023-04-15T22:01:31.543Z,102276.72
2023-04-15T22:04:00.616Z,102273.88
2023-04-15T22:06:27.278Z,102278.09
2023-04-15T22:08:57.813Z,102278.75
2023-04-15T22:11:30.669Z,102283.88
2023-04-15T22:13:59.963Z,102283.63
2023-04-15T22:16:27.034Z,102281.06
2023-04-15T22:18:54.427Z,102285.34
2023-04-15T22:21:20.904Z,102287.91
2023-04-15T22:23:50.957Z,102279.41
2023-04-15T22:26:17.432Z,102289.41
2023-04-15T22:28:46.373Z,102291.97
2023-04-15T22:31:13.716Z,102297.09
2023-04-15T22:33:42.583Z,102288.47
2023-04-15T22:36:11.498Z,102298.47
2023-04-15T22:38:38.014Z,102300.22
2023-04-15T22:41:04.546Z,102293.22
2023-04-15T22:43:33.334Z,102300.63
2023-04-15T22:46:00.661Z,102300.63
2023-04-15T22:48:29.353Z,102301.31
2023-04-15T22:50:58.490Z,102296.88
2023-04-15T22:53:25.058Z,102296.75
2023-04-15T22:55:54.003Z,102305.34
2023-04-15T22:58:23.168Z,102292.44
2023-04-15T23:00:52.114Z,102310.47
2023-04-15T23:03:21.347Z,102310.47
2023-04-15T23:05:49.995Z,102311.28
2023-04-15T23:08:18.857Z,102312.38
2023-04-15T23:10:50.399Z,102314.94
2023-04-15T23:13:16.923Z,102315.88
2023-04-15T23:15:45.710Z,102321.94
2023-04-15T23:18:12.334Z,102308.28
2023-04-15T23:20:38.825Z,102319.38
2023-04-15T23:23:05.385Z,102320.28
2023-04-15T23:25:31.840Z,102325.41
2023-04-15T23:28:00.915Z,102327.16
2023-04-15T23:30:27.363Z,102326.34
2023-04-15T23:32:58.164Z,102332.28
2023-04-15T23:35:27.964Z,102326.34
2023-04-15T23:37:54.438Z,102331.34
2023-04-15T23:40:21.050Z,102336.34
2023-04-15T23:42:47.876Z,102337.28
2023-04-15T23:45:16.840Z,102335.66
2023-04-15T23:47:48.555Z,102334.72
2023-04-15T23:50:15.003Z,102334.59
2023-04-15T23:52:41.523Z,102341.47
2023-04-15T23:55:11.073Z,102330.41
2023-04-15T23:57:40.517Z,102343.09
